sensor_id;sensor_type;location;lat;lon;timestamp;P1;durP1;ratioP1;P2;durP2;ratioP2
56141;SDS011;42018;48.588;10.836;2023-04-22T07:58:43;6.38;;;3.97;;
56141;SDS011;42018;48.588;10.836;2023-04-22T08:01:29;6.07;;;3.78;;
56141;SDS011;42018;48.588;10.836;2023-04-22T08:04:14;5.55;;;3.80;;
56141;SDS011;42018;48.588;10.836;2023-04-22T08:07:00;6.07;;;3.55;;
56141;SDS011;42018;48.588;10.836;2023-04-22T08:09:47;6.25;;;3.95;;
56141;SDS011;42018;48.588;10.836;2023-04-22T08:12:32;5.07;;;3.30;;
56141;SDS011;42018;48.588;10.836;2023-04-22T08:15:18;5.10;;;3.40;;
56141;SDS011;42018;48.588;10.836;2023-04-22T08:18:03;5.05;;;3.10;;
56141;SDS011;42018;48.588;10.836;2023-04-22T08:20:49;5.38;;;3.50;;
56141;SDS011;42018;48.588;10.836;2023-04-22T08:23:34;6.68;;;3.30;;
56141;SDS011;42018;48.588;10.836;2023-04-22T08:26:19;5.50;;;3.25;;
56141;SDS011;42018;48.588;10.836;2023-04-22T08:29:05;5.65;;;3.10;;
56141;SDS011;42018;48.588;10.836;2023-04-22T08:31:51;5.97;;;2.97;;
56141;SDS011;42018;48.588;10.836;2023-04-22T08:34:36;5.28;;;3.13;;
56141;SDS011;42018;48.588;10.836;2023-04-22T08:37:21;4.85;;;3.08;;
56141;SDS011;42018;48.588;10.836;2023-04-22T08:40:07;4.32;;;2.72;;
56141;SDS011;42018;48.588;10.836;2023-04-22T08:42:53;5.82;;;2.80;;
56141;SDS011;42018;48.588;10.836;2023-04-22T08:45:40;5.50;;;2.33;;
56141;SDS011;42018;48.588;10.836;2023-04-22T08:48:26;4.70;;;2.55;;
56141;SDS011;42018;48.588;10.836;2023-04-22T08:51:11;4.15;;;2.35;;
56141;SDS011;42018;48.588;10.836;2023-04-22T08:54:00;5.30;;;2.33;;
56141;SDS011;42018;48.588;10.836;2023-04-22T08:56:45;4.55;;;2.22;;
56141;SDS011;42018;48.588;10.836;2023-04-22T08:59:34;5.40;;;2.40;;
56141;SDS011;42018;48.588;10.836;2023-04-22T09:02:21;6.70;;;2.38;;
56141;SDS011;42018;48.588;10.836;2023-04-22T09:05:08;4.05;;;2.00;;
56141;SDS011;42018;48.588;10.836;2023-04-22T09:07:54;4.93;;;2.35;;
56141;SDS011;42018;48.588;10.836;2023-04-22T09:10:41;5.50;;;2.50;;
56141;SDS011;42018;48.588;10.836;2023-04-22T09:13:27;3.72;;;2.00;;
56141;SDS011;42018;48.588;10.836;2023-04-22T09:16:12;3.20;;;1.70;;
56141;SDS011;42018;48.588;10.836;2023-04-22T09:18:58;4.15;;;2.05;;
56141;SDS011;42018;48.588;10.836;2023-04-22T09:21:43;3.97;;;1.75;;
56141;SDS011;42018;48.588;10.836;2023-04-22T09:24:29;4.20;;;2.15;;
56141;SDS011;42018;48.588;10.836;2023-04-22T09:27:15;4.40;;;2.15;;
56141;SDS011;42018;48.588;10.836;2023-04-22T09:30:03;3.45;;;1.90;;
56141;SDS011;42018;48.588;10.836;2023-04-22T09:32:53;4.45;;;2.15;;
56141;SDS011;42018;48.588;10.836;2023-04-22T09:35:40;3.75;;;2.10;;
56141;SDS011;42018;48.588;10.836;2023-04-22T09:38:29;5.18;;;2.08;;
56141;SDS011;42018;48.588;10.836;2023-04-22T09:41:15;4.35;;;2.00;;
56141;SDS011;42018;48.588;10.836;2023-04-22T09:44:01;3.28;;;1.60;;
56141;SDS011;42018;48.588;10.836;2023-04-22T09:46:48;3.25;;;1.80;;
56141;SDS011;42018;48.588;10.836;2023-04-22T09:49:35;3.92;;;2.05;;
56141;SDS011;42018;48.588;10.836;2023-04-22T09:52:25;4.63;;;2.00;;
56141;SDS011;42018;48.588;10.836;2023-04-22T09:55:12;3.80;;;1.92;;
56141;SDS011;42018;48.588;10.836;2023-04-22T09:58:03;3.80;;;1.90;;
56141;SDS011;42018;48.588;10.836;2023-04-22T10:06:05;3.17;;;1.63;;
56141;SDS011;42018;48.588;10.836;2023-04-22T11:00:30;2.40;;;1.30;;
56141;SDS011;42018;48.588;10.836;2023-04-22T12:18:27;3.33;;;1.40;;
56141;SDS011;42018;48.588;10.836;2023-04-22T13:54:08;2.92;;;1.20;;
56141;SDS011;42018;48.588;10.836;2023-04-22T13:56:54;3.22;;;1.20;;
56141;SDS011;42018;48.588;10.836;2023-04-22T14:33:16;3.85;;;1.23;;
56141;SDS011;42018;48.588;10.836;2023-04-22T14:35:59;6.55;;;1.70;;
56141;SDS011;42018;48.588;10.836;2023-04-22T14:38:45;5.18;;;1.45;;
56141;SDS011;42018;48.588;10.836;2023-04-22T14:41:33;3.58;;;1.30;;
56141;SDS011;42018;48.588;10.836;2023-04-22T14:57:15;3.08;;;1.20;;
56141;SDS011;42018;48.588;10.836;2023-04-22T15:00:03;4.20;;;1.38;;
56141;SDS011;42018;48.588;10.836;2023-04-22T15:02:52;3.83;;;1.30;;
56141;SDS011;42018;48.588;10.836;2023-04-22T15:05:43;4.40;;;1.40;;
56141;SDS011;42018;48.588;10.836;2023-04-22T15:08:19;4.22;;;1.27;;
56141;SDS011;42018;48.588;10.836;2023-04-22T15:11:04;2.95;;;1.20;;
56141;SDS011;42018;48.588;10.836;2023-04-22T15:16:22;2.63;;;1.20;;
56141;SDS011;42018;48.588;10.836;2023-04-22T15:19:08;4.00;;;1.23;;
56141;SDS011;42018;48.588;10.836;2023-04-22T15:26:59;3.25;;;1.30;;
56141;SDS011;42018;48.588;10.836;2023-04-22T15:29:45;3.13;;;1.20;;
56141;SDS011;42018;48.588;10.836;2023-04-22T15:32:31;3.33;;;1.25;;
56141;SDS011;42018;48.588;10.836;2023-04-22T15:35:16;2.75;;;1.20;;
56141;SDS011;42018;48.588;10.836;2023-04-22T15:38:04;4.07;;;1.50;;
56141;SDS011;42018;48.588;10.836;2023-04-22T15:40:49;3.30;;;1.30;;
56141;SDS011;42018;48.588;10.836;2023-04-22T15:43:35;2.95;;;1.30;;
56141;SDS011;42018;48.588;10.836;2023-04-22T15:46:20;3.78;;;1.40;;
56141;SDS011;42018;48.588;10.836;2023-04-22T15:49:06;3.50;;;1.20;;
56141;SDS011;42018;48.588;10.836;2023-04-22T15:51:52;2.80;;;1.27;;
56141;SDS011;42018;48.588;10.836;2023-04-22T15:54:37;2.45;;;1.10;;
56141;SDS011;42018;48.588;10.836;2023-04-22T15:57:23;5.60;;;1.30;;
56141;SDS011;42018;48.588;10.836;2023-04-22T16:00:09;3.30;;;1.40;;
56141;SDS011;42018;48.588;10.836;2023-04-22T16:02:55;4.93;;;2.00;;
56141;SDS011;42018;48.588;10.836;2023-04-22T16:05:41;5.15;;;2.30;;
56141;SDS011;42018;48.588;10.836;2023-04-22T16:08:26;3.90;;;1.55;;
56141;SDS011;42018;48.588;10.836;2023-04-22T16:11:12;3.95;;;1.77;;
56141;SDS011;42018;48.588;10.836;2023-04-22T16:13:58;3.90;;;1.52;;
56141;SDS011;42018;48.588;10.836;2023-04-22T16:16:44;4.93;;;1.50;;
56141;SDS011;42018;48.588;10.836;2023-04-22T16:19:29;7.90;;;1.38;;
56141;SDS011;42018;48.588;10.836;2023-04-22T16:22:15;5.65;;;3.05;;
56141;SDS011;42018;48.588;10.836;2023-04-22T16:25:00;6.20;;;1.20;;
56141;SDS011;42018;48.588;10.836;2023-04-22T16:27:46;3.25;;;1.60;;
56141;SDS011;42018;48.588;10.836;2023-04-22T16:30:31;4.10;;;2.13;;
56141;SDS011;42018;48.588;10.836;2023-04-22T16:33:17;2.92;;;1.52;;
56141;SDS011;42018;48.588;10.836;2023-04-22T16:36:02;3.85;;;1.50;;
56141;SDS011;42018;48.588;10.836;2023-04-22T16:38:48;2.65;;;1.30;;
56141;SDS011;42018;48.588;10.836;2023-04-22T16:41:33;3.03;;;1.63;;
56141;SDS011;42018;48.588;10.836;2023-04-22T16:44:19;3.95;;;1.42;;
56141;SDS011;42018;48.588;10.836;2023-04-22T16:47:05;5.05;;;1.65;;
56141;SDS011;42018;48.588;10.836;2023-04-22T16:49:51;3.70;;;1.73;;
56141;SDS011;42018;48.588;10.836;2023-04-22T16:52:37;2.97;;;1.50;;
56141;SDS011;42018;48.588;10.836;2023-04-22T16:55:23;6.78;;;1.75;;
56141;SDS011;42018;48.588;10.836;2023-04-22T16:58:08;4.68;;;1.80;;
56141;SDS011;42018;48.588;10.836;2023-04-22T17:00:53;3.92;;;1.60;;
56141;SDS011;42018;48.588;10.836;2023-04-22T17:03:39;3.53;;;1.52;;
56141;SDS011;42018;48.588;10.836;2023-04-22T17:06:24;4.63;;;1.75;;
56141;SDS011;42018;48.588;10.836;2023-04-22T17:09:11;3.15;;;1.60;;
56141;SDS011;42018;48.588;10.836;2023-04-22T17:11:57;4.63;;;2.20;;
56141;SDS011;42018;48.588;10.836;2023-04-22T17:14:42;4.53;;;2.40;;
56141;SDS011;42018;48.588;10.836;2023-04-22T17:17:28;5.97;;;3.45;;
56141;SDS011;42018;48.588;10.836;2023-04-22T17:20:13;4.95;;;2.42;;
56141;SDS011;42018;48.588;10.836;2023-04-22T17:22:59;3.97;;;1.60;;
56141;SDS011;42018;48.588;10.836;2023-04-22T17:25:44;7.57;;;3.22;;
56141;SDS011;42018;48.588;10.836;2023-04-22T17:28:30;7.72;;;2.95;;
56141;SDS011;42018;48.588;10.836;2023-04-22T17:31:16;9.90;;;2.40;;
56141;SDS011;42018;48.588;10.836;2023-04-22T17:34:02;4.10;;;1.70;;
56141;SDS011;42018;48.588;10.836;2023-04-22T17:36:48;4.90;;;1.83;;
56141;SDS011;42018;48.588;10.836;2023-04-22T17:39:33;4.35;;;2.25;;
56141;SDS011;42018;48.588;10.836;2023-04-22T17:42:18;4.70;;;2.30;;
56141;SDS011;42018;48.588;10.836;2023-04-22T17:45:04;6.53;;;2.28;;
56141;SDS011;42018;48.588;10.836;2023-04-22T17:47:50;4.78;;;2.13;;
56141;SDS011;42018;48.588;10.836;2023-04-22T17:50:35;5.32;;;2.10;;
56141;SDS011;42018;48.588;10.836;2023-04-22T17:53:21;4.13;;;1.83;;
56141;SDS011;42018;48.588;10.836;2023-04-22T17:56:07;4.57;;;2.30;;
56141;SDS011;42018;48.588;10.836;2023-04-22T17:58:52;7.45;;;2.20;;
56141;SDS011;42018;48.588;10.836;2023-04-22T18:01:38;5.97;;;2.10;;
56141;SDS011;42018;48.588;10.836;2023-04-22T18:04:23;5.20;;;2.00;;
56141;SDS011;42018;48.588;10.836;2023-04-22T18:07:09;5.47;;;2.20;;
56141;SDS011;42018;48.588;10.836;2023-04-22T18:09:54;4.30;;;2.30;;
56141;SDS011;42018;48.588;10.836;2023-04-22T18:12:40;4.53;;;2.33;;
56141;SDS011;42018;48.588;10.836;2023-04-22T18:15:25;6.50;;;2.50;;
56141;SDS011;42018;48.588;10.836;2023-04-22T18:18:11;4.40;;;2.17;;
56141;SDS011;42018;48.588;10.836;2023-04-22T18:20:58;5.63;;;1.80;;
56141;SDS011;42018;48.588;10.836;2023-04-22T18:23:45;5.82;;;2.00;;
56141;SDS011;42018;48.588;10.836;2023-04-22T18:26:30;5.55;;;1.92;;
56141;SDS011;42018;48.588;10.836;2023-04-22T18:29:16;5.43;;;2.13;;
56141;SDS011;42018;48.588;10.836;2023-04-22T18:32:01;3.85;;;1.83;;
56141;SDS011;42018;48.588;10.836;2023-04-22T18:34:46;6.95;;;2.05;;
56141;SDS011;42018;48.588;10.836;2023-04-22T18:37:32;4.28;;;1.70;;
56141;SDS011;42018;48.588;10.836;2023-04-22T18:40:18;4.70;;;2.10;;
56141;SDS011;42018;48.588;10.836;2023-04-22T18:43:05;3.90;;;1.85;;
56141;SDS011;42018;48.588;10.836;2023-04-22T18:45:50;6.20;;;1.98;;
56141;SDS011;42018;48.588;10.836;2023-04-22T18:48:35;7.05;;;2.00;;
56141;SDS011;42018;48.588;10.836;2023-04-22T18:51:21;5.10;;;1.90;;
56141;SDS011;42018;48.588;10.836;2023-04-22T18:54:06;6.45;;;1.95;;
56141;SDS011;42018;48.588;10.836;2023-04-22T18:56:51;5.20;;;2.05;;
56141;SDS011;42018;48.588;10.836;2023-04-22T18:59:37;4.68;;;2.00;;
56141;SDS011;42018;48.588;10.836;2023-04-22T19:02:29;4.75;;;1.73;;
56141;SDS011;42018;48.588;10.836;2023-04-22T19:05:14;3.90;;;1.70;;
56141;SDS011;42018;48.588;10.836;2023-04-22T19:08:01;3.60;;;1.70;;
56141;SDS011;42018;48.588;10.836;2023-04-22T19:10:47;5.10;;;1.92;;
56141;SDS011;42018;48.588;10.836;2023-04-22T19:13:32;4.07;;;1.80;;
56141;SDS011;42018;48.588;10.836;2023-04-22T19:16:18;6.70;;;1.90;;
56141;SDS011;42018;48.588;10.836;2023-04-22T19:19:03;3.47;;;1.70;;
56141;SDS011;42018;48.588;10.836;2023-04-22T19:21:48;3.72;;;1.77;;
56141;SDS011;42018;48.588;10.836;2023-04-22T19:24:34;7.07;;;2.20;;
56141;SDS011;42018;48.588;10.836;2023-04-22T19:27:20;4.47;;;2.00;;
56141;SDS011;42018;48.588;10.836;2023-04-22T19:30:05;5.05;;;2.00;;
56141;SDS011;42018;48.588;10.836;2023-04-22T19:32:54;3.85;;;1.77;;
56141;SDS011;42018;48.588;10.836;2023-04-22T19:35:40;4.82;;;2.10;;
56141;SDS011;42018;48.588;10.836;2023-04-22T19:38:25;3.85;;;1.90;;
56141;SDS011;42018;48.588;10.836;2023-04-22T19:41:11;5.93;;;2.00;;
56141;SDS011;42018;48.588;10.836;2023-04-22T19:43:57;5.22;;;2.00;;
56141;SDS011;42018;48.588;10.836;2023-04-22T19:46:43;4.30;;;2.00;;
56141;SDS011;42018;48.588;10.836;2023-04-22T19:49:31;4.95;;;1.90;;
56141;SDS011;42018;48.588;10.836;2023-04-22T19:52:17;4.50;;;2.15;;
56141;SDS011;42018;48.588;10.836;2023-04-22T19:55:05;4.78;;;2.00;;
56141;SDS011;42018;48.588;10.836;2023-04-22T19:57:54;4.30;;;2.17;;
56141;SDS011;42018;48.588;10.836;2023-04-22T20:00:39;3.92;;;1.90;;
56141;SDS011;42018;48.588;10.836;2023-04-22T20:03:26;4.88;;;2.00;;
56141;SDS011;42018;48.588;10.836;2023-04-22T20:06:12;4.28;;;2.10;;
56141;SDS011;42018;48.588;10.836;2023-04-22T20:08:59;4.35;;;2.03;;
56141;SDS011;42018;48.588;10.836;2023-04-22T20:11:46;5.00;;;2.05;;
56141;SDS011;42018;48.588;10.836;2023-04-22T20:14:32;5.35;;;2.05;;
56141;SDS011;42018;48.588;10.836;2023-04-22T20:17:18;5.45;;;2.30;;
56141;SDS011;42018;48.588;10.836;2023-04-22T20:20:05;4.93;;;2.35;;
56141;SDS011;42018;48.588;10.836;2023-04-22T20:22:59;4.30;;;2.10;;
56141;SDS011;42018;48.588;10.836;2023-04-22T20:25:53;5.15;;;2.20;;
56141;SDS011;42018;48.588;10.836;2023-04-22T20:28:46;4.65;;;2.20;;
56141;SDS011;42018;48.588;10.836;2023-04-22T20:31:33;4.18;;;2.40;;
56141;SDS011;42018;48.588;10.836;2023-04-22T20:34:19;3.83;;;2.15;;
56141;SDS011;42018;48.588;10.836;2023-04-22T20:37:05;3.92;;;2.10;;
56141;SDS011;42018;48.588;10.836;2023-04-22T20:39:53;5.00;;;2.38;;
56141;SDS011;42018;48.588;10.836;2023-04-22T20:42:40;4.85;;;2.20;;
56141;SDS011;42018;48.588;10.836;2023-04-22T20:45:25;4.82;;;2.15;;
56141;SDS011;42018;48.588;10.836;2023-04-22T20:48:13;5.30;;;2.15;;
56141;SDS011;42018;48.588;10.836;2023-04-22T20:54:17;4.55;;;2.40;;
56141;SDS011;42018;48.588;10.836;2023-04-22T20:57:06;6.10;;;2.20;;
56141;SDS011;42018;48.588;10.836;2023-04-22T20:59:52;6.05;;;2.72;;
56141;SDS011;42018;48.588;10.836;2023-04-22T21:02:43;4.57;;;2.25;;
56141;SDS011;42018;48.588;10.836;2023-04-22T21:05:35;5.93;;;2.70;;
56141;SDS011;42018;48.588;10.836;2023-04-22T21:08:27;7.03;;;2.60;;
56141;SDS011;42018;48.588;10.836;2023-04-22T21:11:13;7.30;;;2.50;;
56141;SDS011;42018;48.588;10.836;2023-04-22T21:14:18;4.47;;;2.58;;
56141;SDS011;42018;48.588;10.836;2023-04-22T21:17:20;4.68;;;2.75;;
56141;SDS011;42018;48.588;10.836;2023-04-22T21:20:09;5.75;;;2.30;;
56141;SDS011;42018;48.588;10.836;2023-04-22T21:22:55;3.95;;;2.17;;
56141;SDS011;42018;48.588;10.836;2023-04-22T21:25:55;4.63;;;2.78;;
56141;SDS011;42018;48.588;10.836;2023-04-22T21:28:45;5.70;;;3.03;;
56141;SDS011;42018;48.588;10.836;2023-04-22T21:31:33;5.22;;;2.60;;
56141;SDS011;42018;48.588;10.836;2023-04-22T21:34:19;6.15;;;2.88;;
56141;SDS011;42018;48.588;10.836;2023-04-22T21:37:05;5.35;;;3.08;;
56141;SDS011;42018;48.588;10.836;2023-04-22T21:39:51;4.95;;;2.83;;
56141;SDS011;42018;48.588;10.836;2023-04-22T21:42:51;6.07;;;2.72;;
56141;SDS011;42018;48.588;10.836;2023-04-22T21:45:37;4.40;;;2.47;;
56141;SDS011;42018;48.588;10.836;2023-04-22T21:51:29;5.22;;;2.53;;
56141;SDS011;42018;48.588;10.836;2023-04-22T21:54:19;4.03;;;2.20;;
56141;SDS011;42018;48.588;10.836;2023-04-22T22:01:04;4.38;;;2.25;;
56141;SDS011;42018;48.588;10.836;2023-04-22T22:07:47;4.97;;;2.40;;
56141;SDS011;42018;48.588;10.836;2023-04-22T22:10:33;4.55;;;2.20;;
56141;SDS011;42018;48.588;10.836;2023-04-22T22:13:22;6.03;;;2.50;;
56141;SDS011;42018;48.588;10.836;2023-04-22T22:16:07;5.82;;;2.60;;
56141;SDS011;42018;48.588;10.836;2023-04-22T22:18:55;4.82;;;2.33;;
56141;SDS011;42018;48.588;10.836;2023-04-22T22:21:56;4.75;;;2.40;;
56141;SDS011;42018;48.588;10.836;2023-04-22T22:34:52;5.50;;;3.20;;
56141;SDS011;42018;48.588;10.836;2023-04-22T22:37:38;4.63;;;2.53;;
56141;SDS011;42018;48.588;10.836;2023-04-22T22:40:26;6.13;;;2.92;;
56141;SDS011;42018;48.588;10.836;2023-04-22T22:43:12;5.70;;;3.20;;
56141;SDS011;42018;48.588;10.836;2023-04-22T22:45:57;5.05;;;2.85;;
56141;SDS011;42018;48.588;10.836;2023-04-22T22:48:43;4.78;;;2.75;;
56141;SDS011;42018;48.588;10.836;2023-04-22T22:51:30;5.30;;;2.78;;
56141;SDS011;42018;48.588;10.836;2023-04-22T22:57:35;4.93;;;2.60;;
56141;SDS011;42018;48.588;10.836;2023-04-22T23:00:21;4.93;;;2.80;;
56141;SDS011;42018;48.588;10.836;2023-04-22T23:03:14;4.75;;;2.63;;
56141;SDS011;42018;48.588;10.836;2023-04-22T23:06:00;5.55;;;2.72;;
56141;SDS011;42018;48.588;10.836;2023-04-22T23:08:46;7.72;;;3.38;;
56141;SDS011;42018;48.588;10.836;2023-04-22T23:11:32;5.40;;;2.80;;
56141;SDS011;42018;48.588;10.836;2023-04-22T23:14:17;4.50;;;2.75;;
56141;SDS011;42018;48.588;10.836;2023-04-22T23:17:04;6.38;;;2.70;;
56141;SDS011;42018;48.588;10.836;2023-04-22T23:19:54;4.80;;;2.70;;
56141;SDS011;42018;48.588;10.836;2023-04-22T23:22:41;4.72;;;2.80;;
56141;SDS011;42018;48.588;10.836;2023-04-22T23:25:27;6.05;;;2.72;;
56141;SDS011;42018;48.588;10.836;2023-04-22T23:28:14;4.80;;;2.28;;
56141;SDS011;42018;48.588;10.836;2023-04-22T23:34:30;4.65;;;2.90;;
56141;SDS011;42018;48.588;10.836;2023-04-22T23:37:29;4.35;;;2.80;;
56141;SDS011;42018;48.588;10.836;2023-04-22T23:40:15;6.05;;;2.80;;
56141;SDS011;42018;48.588;10.836;2023-04-22T23:43:03;5.03;;;2.65;;
56141;SDS011;42018;48.588;10.836;2023-04-22T23:45:47;4.35;;;2.47;;
56141;SDS011;42018;48.588;10.836;2023-04-22T23:48:53;5.75;;;2.60;;
56141;SDS011;42018;48.588;10.836;2023-04-22T23:55:35;4.32;;;2.70;;
56141;SDS011;42018;48.588;10.836;2023-04-22T23:58:20;5.05;;;2.90;;
